Buckeye, Texas
Current Conditions -  °F | °C
As of 3:53 AM on Thursday 23 Oct 2014 (Local Time) from KLBX Reporting Station
Clear Clear  
Wind Chill: 57°   Ceiling: Unl
Heat Index: 57°   Visibility: 7mi
Dew Point: 57°   Wind: 7mph
Humidity: 100%   Direction: 10°N
Pressure: 30.06"   Gusts: NA
Location:  28.8997°N, 95.7887°W
Report Text: KLBX 230853Z AUTO 01006KT 7SM CLR 14/14 A3006 RMK AO2 SLP179 T01390139 58003 $
Loading
Personal Weather Stations






























Interactive Weather Map
Tropical Storm Tracking
New forecast layout! Learn more

10-Day Weather Forecast

Advertisements
Track Severe Weather on mobile